Time;durP1;ratioP1;P1;durP2;ratioP2;P2;SDS_P1;SDS_P2;PMS_P1;PMS_P2;Temp;Humidity;BMP_temperature;BMP_pressure;BME280_temperature;BME280_humidity;BME280_pressure;Samples;Min_cycle;Max_cycle;Signal;HPM_P1;HPM_P2
2021/12/16 00:02:10;;;;;;;298.55;139.70;;;;;;;-1.15;100.00;100322.63;1733454;82;20853;-65
2021/12/16 00:05:14;;;;;;;144.43;66.00;;;;;;;-1.14;100.00;100322.95;1734041;82;21009;-66
2021/12/16 00:09:53;;;;;;;284.87;142.37;;;;;;;-1.11;100.00;100326.58;1734139;82;21021;-65
2021/12/16 00:32:05;;;;;;;90.00;44.53;;;;;;;-1.09;100.00;100344.38;1717103;82;20937;-66
2021/12/16 00:34:29;;;;;;;81.10;37.75;;;;;;;-1.09;100.00;100339.10;1708028;84;21054;-65
2021/12/16 00:36:56;;;;;;;83.62;36.50;;;;;;;-1.10;100.00;100337.97;1738486;82;21000;-64
2021/12/16 00:39:27;;;;;;;86.90;36.30;;;;;;;-1.09;100.00;100331.20;1738254;82;21168;-66
2021/12/16 00:42:06;;;;;;;90.12;41.58;;;;;;;-1.09;100.00;100326.42;1707954;83;21583;-65
2021/12/16 00:47:26;;;;;;;86.30;40.60;;;;;;;-1.07;100.00;100319.19;1707841;84;20982;-66
2021/12/16 00:49:37;;;;;;;96.02;40.10;;;;;;;-1.10;100.00;100312.44;1733777;82;20941;-64
2021/12/16 00:55:08;;;;;;;83.17;38.38;;;;;;;-1.08;100.00;100301.72;1708435;84;20956;-66
2021/12/16 00:57:25;;;;;;;80.10;37.00;;;;;;;-1.07;100.00;100302.56;1709641;83;21066;-63
2021/12/16 00:59:53;;;;;;;76.70;35.65;;;;;;;-1.10;100.00;100296.62;1710308;83;20911;-64
2021/12/16 01:02:51;;;;;;;76.80;35.03;;;;;;;-1.10;100.00;100297.13;1680323;85;20860;-63
2021/12/16 01:05:43;;;;;;;69.07;33.53;;;;;;;-1.13;100.00;100294.31;1671906;84;21955;-64
2021/12/16 01:35:50;;;;;;;85.75;40.60;;;;;;;-1.07;100.00;100292.84;1693190;84;21052;-65
2021/12/16 01:39:27;;;;;;;82.50;42.90;;;;;;;-1.08;100.00;100296.45;1693318;84;20944;-66
2021/12/16 01:46:35;;;;;;;79.82;34.67;;;;;;;-1.07;100.00;100273.09;1692628;84;21158;-66
2021/12/16 01:49:10;;;;;;;71.45;30.92;;;;;;;-1.07;100.00;100269.12;1688996;84;21016;-65
2021/12/16 01:51:24;;;;;;;76.82;37.63;;;;;;;-1.06;100.00;100260.73;1691328;84;21040;-65
2021/12/16 01:56:40;;;;;;;74.27;34.65;;;;;;;-1.09;100.00;100240.80;1680466;85;20166;-67
2021/12/16 01:58:52;;;;;;;65.47;28.40;;;;;;;-1.10;100.00;100239.98;1693023;83;21171;-67
2021/12/16 02:01:29;;;;;;;79.55;35.28;;;;;;;-1.14;100.00;100233.37;1722364;83;20910;-67
2021/12/16 02:04:00;;;;;;;74.07;34.73;;;;;;;-1.13;100.00;100228.92;1724546;83;20946;-66
2021/12/16 02:09:30;;;;;;;69.47;34.25;;;;;;;-1.10;100.00;100228.62;1692407;84;20953;-66
2021/12/16 02:12:03;;;;;;;83.40;36.85;;;;;;;-1.14;100.00;100230.73;1721028;83;21532;-66
2021/12/16 02:31:20;;;;;;;66.85;34.38;;;;;;;-1.16;100.00;100227.94;1680234;85;20952;-67
2021/12/16 02:36:29;;;;;;;78.75;36.58;;;;;;;-1.19;100.00;100215.91;1669260;85;21063;-68
2021/12/16 02:39:04;;;;;;;69.62;33.65;;;;;;;-1.18;100.00;100214.09;1668829;84;21336;-69
2021/12/16 02:41:31;;;;;;;;;;;;;;;-1.18;100.00;100218.05;1683515;84;21576;-66
2021/12/16 02:44:18;;;;;;;74.10;33.88;;;;;;;-1.20;100.00;100220.86;1667064;85;20132;-65
2021/12/16 02:49:26;;;;;;;76.02;38.70;;;;;;;-1.21;100.00;100222.33;1673841;83;21471;-67
2021/12/16 02:51:56;;;;;;;82.12;38.50;;;;;;;-1.22;100.00;100223.33;1725379;83;21056;-66
2021/12/16 02:54:26;;;;;;;79.58;37.40;;;;;;;-1.23;100.00;100215.89;1722841;83;20895;-66
2021/12/16 02:56:59;;;;;;;83.92;38.40;;;;;;;-1.23;100.00;100221.66;1705051;83;20982;-67
2021/12/16 02:59:32;;;;;;;80.17;40.05;;;;;;;-1.22;100.00;100227.27;1710591;83;20917;-66
2021/12/16 03:02:07;;;;;;;102.65;53.40;;;;;;;-1.23;100.00;100223.79;1718540;83;20880;-68
2021/12/16 03:04:34;;;;;;;286.32;211.45;;;;;;;-1.22;100.00;100233.36;1721117;83;22024;-68
2021/12/16 03:07:01;;;;;;;363.75;193.90;;;;;;;-1.21;100.00;100232.36;1725544;83;20944;-68
2021/12/16 03:10:15;;;;;;;169.13;87.37;;;;;;;-1.21;100.00;100233.68;1725791;83;20909;-67
2021/12/16 03:12:31;;;;;;;598.28;326.30;;;;;;;-1.20;100.00;100233.18;1722762;83;20978;-68
2021/12/16 03:14:39;;;;;;;146.57;71.50;;;;;;;-1.20;100.00;100233.18;1720260;83;21506;-68
2021/12/16 03:19:50;;;;;;;117.80;55.17;;;;;;;-1.19;100.00;100231.72;1707475;83;25222;-68
2021/12/16 03:22:05;;;;;;;241.93;113.10;;;;;;;-1.19;100.00;100226.95;1698062;83;21513;-67
2021/12/16 03:33:15;;;;;;;64.62;32.42;;;;;;;-1.16;100.00;100208.99;1702118;82;21576;-67
2021/12/16 03:35:31;;;;;;;76.30;36.15;;;;;;;-1.15;100.00;100208.02;1723754;83;20870;-67
2021/12/16 03:38:00;;;;;;;110.90;52.53;;;;;;;-1.17;100.00;100192.87;1716348;83;20987;-67
2021/12/16 03:40:27;;;;;;;88.75;36.55;;;;;;;-1.21;100.00;100186.77;1730407;82;20975;-66
2021/12/16 03:43:03;;;;;;;83.45;38.23;;;;;;;-1.26;100.00;100177.20;1726955;83;21530;-67
2021/12/16 03:48:36;;;;;;;80.00;34.10;;;;;;;-1.30;100.00;100176.69;1729996;82;21023;-65
2021/12/16 03:51:08;;;;;;;79.53;34.83;;;;;;;-1.34;100.00;100174.06;1730278;83;20935;-67
2021/12/16 03:53:37;;;;;;;67.80;29.98;;;;;;;-1.37;100.00;100166.47;1730480;82;22216;-66
2021/12/16 03:56:04;;;;;;;67.12;27.98;;;;;;;-1.41;100.00;100170.42;1730012;83;22420;-66
2021/12/16 03:58:33;;;;;;;;;;;;;;;-1.45;100.00;100176.48;1733224;82;20931;-67
2021/12/16 04:01:03;;;;;;;64.00;28.35;;;;;;;-1.44;100.00;100178.16;1729384;82;20159;-64
2021/12/16 04:03:32;;;;;;;67.60;28.92;;;;;;;-1.50;100.00;100169.56;1729464;83;20891;-66
2021/12/16 04:06:00;;;;;;;70.08;29.70;;;;;;;-1.53;100.00;100172.03;1733266;82;21407;-67
2021/12/16 04:08:28;;;;;;;61.92;30.27;;;;;;;-1.56;100.00;100160.51;1750558;81;21946;-65
2021/12/16 04:11:06;;;;;;;65.12;31.48;;;;;;;-1.58;100.00;100148.49;1730794;83;21507;-66
2021/12/16 04:13:54;;;;;;;60.28;28.98;;;;;;;-1.60;100.00;100149.14;1730932;81;20897;-64
2021/12/16 04:16:12;;;;;;;61.40;27.37;;;;;;;-1.64;100.00;100153.91;1720994;83;20870;-66
2021/12/16 04:18:40;;;;;;;55.08;23.77;;;;;;;-1.65;100.00;100144.34;1725581;83;21002;-67
2021/12/16 04:21:07;;;;;;;63.68;28.83;;;;;;;-1.66;100.00;100134.00;1725807;83;21266;-65
2021/12/16 04:23:34;;;;;;;66.65;26.68;;;;;;;-1.65;100.00;100122.47;1725202;83;21000;-64
2021/12/16 04:26:02;;;;;;;61.58;28.23;;;;;;;-1.64;100.00;100117.06;1725890;83;20926;-65
2021/12/16 04:28:30;;;;;;;62.93;29.77;;;;;;;-1.69;100.00;100128.56;1725575;83;21456;-64
2021/12/16 04:31:00;;;;;;;78.07;37.08;;;;;;;-1.69;100.00;100128.56;1725975;83;21444;-65
2021/12/16 04:33:28;;;;;;;68.62;35.17;;;;;;;-1.68;100.00;100141.23;1730118;83;25073;-65
2021/12/16 04:35:56;;;;;;;59.77;29.25;;;;;;;-1.67;100.00;100126.57;1729457;83;22183;-64
2021/12/16 04:38:23;;;;;;;66.53;29.27;;;;;;;-1.61;100.00;100133.84;1729274;83;20976;-64
2021/12/16 04:40:51;;;;;;;67.75;30.97;;;;;;;-1.54;100.00;100137.48;1730275;82;20988;-65
2021/12/16 04:43:20;;;;;;;58.10;30.52;;;;;;;-1.48;100.00;100129.92;1730433;83;21517;-65
2021/12/16 04:45:53;;;;;;;62.30;28.98;;;;;;;-1.44;100.00;100118.91;1728321;83;21164;-66
2021/12/16 04:48:21;;;;;;;62.85;30.82;;;;;;;-1.38;100.00;100137.18;1727009;83;21477;-65
2021/12/16 04:50:48;;;;;;;64.85;30.45;;;;;;;-1.35;100.00;100137.70;1729688;83;20931;-65
2021/12/16 04:53:16;;;;;;;59.83;27.05;;;;;;;-1.33;100.00;100131.75;1728252;83;20999;-66
2021/12/16 04:55:44;;;;;;;52.93;24.50;;;;;;;-1.30;100.00;100114.80;1729556;82;21651;-65
2021/12/16 04:58:14;;;;;;;74.97;33.20;;;;;;;-1.26;100.00;100124.53;1726916;83;21797;-66
2021/12/16 05:00:42;;;;;;;66.12;29.23;;;;;;;-1.25;100.00;100124.38;1730235;83;21410;-64
2021/12/16 05:03:14;;;;;;;60.98;28.25;;;;;;;-1.23;100.00;100134.73;1728647;83;21078;-64
2021/12/16 05:05:43;;;;;;;36.65;16.05;;;;;;;-1.20;100.00;100143.61;1728274;82;21734;-66
2021/12/16 05:08:10;;;;;;;50.23;23.42;;;;;;;-1.22;100.00;100142.48;1726890;82;20923;-66
2021/12/16 05:10:41;;;;;;;49.90;25.35;;;;;;;-1.18;100.00;100136.38;1726906;82;21006;-66
2021/12/16 05:13:18;;;;;;;47.93;23.15;;;;;;;-1.15;100.00;100142.63;1724366;82;21002;-65
2021/12/16 05:15:45;;;;;;;45.58;21.70;;;;;;;-1.15;100.00;100131.63;1726099;82;20993;-67
2021/12/16 05:18:20;;;;;;;55.73;25.88;;;;;;;-1.10;100.00;100133.77;1722565;82;21023;-66
2021/12/16 05:20:46;;;;;;;42.25;21.05;;;;;;;-1.06;100.00;100135.57;1726877;81;21003;-67
2021/12/16 05:28:29;;;;;;;42.50;20.32;;;;;;;-1.02;100.00;100125.86;1692542;83;21049;-67
2021/12/16 05:30:59;;;;;;;48.20;22.90;;;;;;;-1.01;100.00;100130.12;1726805;81;21044;-65
2021/12/16 05:33:26;;;;;;;48.95;24.30;;;;;;;-0.95;100.00;100139.21;1711038;82;21503;-68
2021/12/16 05:35:54;;;;;;;38.50;18.05;;;;;;;-0.95;100.00;100132.13;1704885;83;21076;-68
2021/12/16 05:38:23;;;;;;;;;;;;;;;-0.96;100.00;100121.73;1722600;81;21569;-68
2021/12/16 05:40:52;;;;;;;;;;;;;;;-0.92;100.00;100127.02;1727208;82;20204;-68
2021/12/16 05:43:33;;;;;;;53.40;24.30;;;;;;;-0.91;100.00;100120.27;1720216;83;20128;-65
2021/12/16 05:46:00;;;;;;;;;;;;;;;-0.88;100.00;100116.48;1721194;83;21492;-67
2021/12/16 05:48:31;;;;;;;;;;;;;;;-0.90;100.00;100113.19;1702622;83;20093;-66
2021/12/16 05:51:03;;;;;;;39.90;18.52;;;;;;;-0.89;100.00;100119.59;1715898;82;20626;-67
2021/12/16 05:53:30;;;;;;;41.30;20.55;;;;;;;-0.90;100.00;100115.31;1727285;83;21500;-66
2021/12/16 05:56:07;;;;;;;42.00;18.25;;;;;;;-0.87;100.00;100112.84;1696150;83;20958;-66
2021/12/16 05:58:37;;;;;;;46.28;21.45;;;;;;;-0.85;100.00;100110.05;1701329;83;21043;-67
2021/12/16 06:01:12;;;;;;;45.25;21.42;;;;;;;-0.82;100.00;100113.67;1717096;81;21842;-65
2021/12/16 06:03:40;;;;;;;35.17;17.27;;;;;;;-0.81;100.00;100111.35;1730181;82;20970;-64
2021/12/16 06:06:09;;;;;;;49.58;22.35;;;;;;;-0.81;100.00;100117.94;1729317;81;21092;-66
2021/12/16 06:08:36;;;;;;;47.03;22.58;;;;;;;-0.79;100.00;100114.15;1728550;83;21027;-66
2021/12/16 06:13:40;;;;;;;126.82;59.70;;;;;;;-0.77;100.00;100115.31;1640429;86;21160;-69
2021/12/16 06:29:30;;;;;;;63.13;39.60;;;;;;;-0.74;100.00;100093.88;1677964;84;20993;-68
2021/12/16 06:31:57;;;;;;;85.77;44.70;;;;;;;-0.70;100.00;100085.98;1660188;85;21114;-68
2021/12/16 06:34:24;;;;;;;63.95;30.90;;;;;;;-0.67;100.00;100094.36;1672356;85;21090;-68
2021/12/16 06:36:51;;;;;;;63.13;34.70;;;;;;;-0.69;100.00;100090.25;1699286;84;21061;-67
2021/12/16 06:39:18;;;;;;;59.73;31.55;;;;;;;-0.65;100.00;100093.70;1636624;86;21541;-67
2021/12/16 06:41:51;;;;;;;54.40;26.57;;;;;;;-0.66;100.00;100092.57;1666178;86;21667;-67
2021/12/16 06:44:26;;;;;;;48.38;26.65;;;;;;;-0.66;100.00;100092.06;1697167;84;21557;-68
2021/12/16 06:46:53;;;;;;;49.20;24.37;;;;;;;-0.65;100.00;100085.79;1699178;83;21461;-68
2021/12/16 06:49:21;;;;;;;47.33;23.57;;;;;;;-0.63;100.00;100081.69;1679023;84;21523;-68
2021/12/16 06:51:57;;;;;;;42.83;22.15;;;;;;;-0.62;100.00;100082.00;1671723;85;21543;-67
2021/12/16 06:54:32;;;;;;;45.12;21.45;;;;;;;-0.60;100.00;100075.25;1671394;85;21005;-67
2021/12/16 06:57:13;;;;;;;46.85;24.05;;;;;;;-0.59;100.00;100079.02;1677778;84;21065;-66
2021/12/16 06:59:33;;;;;;;50.17;25.25;;;;;;;-0.57;100.00;100069.62;1697542;84;20955;-67
2021/12/16 07:02:14;;;;;;;47.00;26.97;;;;;;;-0.53;100.00;100070.45;1680874;83;21111;-68
2021/12/16 07:04:36;;;;;;;47.45;22.87;;;;;;;-0.49;100.00;100073.08;1611121;87;21239;-67
2021/12/16 07:07:06;;;;;;;43.23;22.32;;;;;;;-0.48;100.00;100067.30;1646484;86;21044;-67
2021/12/16 07:09:35;;;;;;;44.45;20.62;;;;;;;-0.44;100.00;100065.48;1699305;84;21106;-67
2021/12/16 07:12:03;;;;;;;52.27;25.77;;;;;;;-0.45;100.00;100063.82;1659084;86;21540;-69
2021/12/16 07:14:36;;;;;;;53.73;31.00;;;;;;;-0.42;100.00;100056.56;1676119;84;21052;-67
2021/12/16 07:17:10;;;;;;;58.78;31.48;;;;;;;-0.37;100.00;100059.52;1658670;86;21123;-67
2021/12/16 07:19:38;;;;;;;48.45;28.57;;;;;;;-0.38;100.00;100052.60;1698213;83;20974;-68
2021/12/16 07:22:06;;;;;;;48.45;27.05;;;;;;;-0.33;100.00;100056.37;1672058;84;21102;-68
2021/12/16 07:24:36;;;;;;;49.63;26.70;;;;;;;-0.34;100.00;100048.14;1670997;84;21045;-67
2021/12/16 07:27:09;;;;;;;51.95;27.02;;;;;;;-0.30;100.00;100057.34;1671236;85;21012;-67
2021/12/16 07:29:36;;;;;;;50.63;25.68;;;;;;;-0.26;100.00;100056.52;1671236;85;21146;-67
2021/12/16 07:32:04;;;;;;;34.92;17.00;;;;;;;-0.25;100.00;100051.55;1671219;85;20999;-67
2021/12/16 07:34:31;;;;;;;40.10;23.85;;;;;;;-0.22;100.00;100056.51;1677548;83;20975;-69
2021/12/16 07:36:59;;;;;;;64.07;32.93;;;;;;;-0.23;100.00;100044.30;1701020;84;21074;-67
2021/12/16 07:39:30;;;;;;;54.40;30.45;;;;;;;-0.15;100.00;100047.39;1696936;84;21057;-67
2021/12/16 07:41:58;;;;;;;53.20;28.70;;;;;;;-0.14;100.00;100046.41;1696272;84;24741;-67
2021/12/16 07:44:28;;;;;;;53.40;29.30;;;;;;;-0.09;100.00;100051.48;1717170;83;20908;-68
2021/12/16 07:46:59;;;;;;;42.75;23.30;;;;;;;-0.05;100.00;100051.95;1729245;83;21006;-68
2021/12/16 07:49:31;;;;;;;46.05;26.48;;;;;;;-0.04;100.00;100047.02;1728560;82;21428;-67
2021/12/16 07:52:05;;;;;;;51.45;27.22;;;;;;;0.01;100.00;100043.36;1727559;82;21051;-66
2021/12/16 07:54:33;;;;;;;46.53;25.10;;;;;;;0.05;100.00;100046.46;1728576;83;21126;-67
2021/12/16 07:57:01;;;;;;;49.77;25.95;;;;;;;0.03;100.00;100040.05;1728792;83;21022;-66
2021/12/16 07:59:35;;;;;;;49.50;25.65;;;;;;;0.09;100.00;100040.66;1728803;82;21047;-66
2021/12/16 08:02:08;;;;;;;51.28;25.10;;;;;;;0.11;100.00;100042.64;1728662;82;21009;-66
2021/12/16 08:04:40;;;;;;;51.68;26.20;;;;;;;0.14;100.00;100020.35;1726737;82;21015;-66
2021/12/16 08:07:04;;;;;;;;;;;;;;;0.13;100.00;100027.95;1731529;83;21549;-67
2021/12/16 08:09:35;;;;;;;43.78;24.40;;;;;;;0.14;100.00;100021.67;1729419;82;20419;-68
2021/12/16 08:12:05;;;;;;;44.20;19.50;;;;;;;0.13;100.00;100027.45;1728581;83;21360;-66
2021/12/16 08:14:33;;;;;;;61.33;34.35;;;;;;;0.18;100.00;100028.26;1728465;82;21054;-67
2021/12/16 08:17:01;;;;;;;51.48;28.77;;;;;;;0.24;100.00;100027.55;1729309;82;21848;-67
2021/12/16 08:19:33;;;;;;;57.85;29.00;;;;;;;0.26;100.00;100028.70;1728739;83;21205;-66
2021/12/16 08:22:01;;;;;;;61.50;35.52;;;;;;;0.28;100.00;100026.71;1698896;84;21050;-67
2021/12/16 08:24:28;;;;;;;49.18;24.87;;;;;;;0.32;100.00;100029.30;1700537;84;21105;-66
2021/12/16 08:26:56;;;;;;;;;;;;;;;0.29;100.00;100023.87;1703673;84;20943;-67
2021/12/16 08:29:32;;;;;;;44.33;24.40;;;;;;;0.30;100.00;100037.42;1700917;84;20193;-67
2021/12/16 08:32:05;;;;;;;47.05;27.32;;;;;;;0.35;100.00;100023.19;1699998;84;21571;-68
2021/12/16 08:34:33;;;;;;;45.78;25.25;;;;;;;0.40;100.00;100026.63;1700080;83;21070;-66
2021/12/16 08:37:02;;;;;;;47.30;26.35;;;;;;;0.39;100.00;100021.85;1693725;84;20932;-67
2021/12/16 08:39:30;;;;;;;53.73;28.98;;;;;;;0.43;100.00;100020.48;1669282;84;21113;-66
2021/12/16 08:41:57;;;;;;;55.60;26.62;;;;;;;0.46;100.00;100010.06;1675063;84;21090;-66
2021/12/16 08:44:30;;;;;;;52.50;26.42;;;;;;;0.47;100.00;100005.12;1682774;84;21242;-68
2021/12/16 08:47:02;;;;;;;48.08;24.10;;;;;;;0.45;100.00;99988.63;1688462;84;21519;-67
2021/12/16 08:49:29;;;;;;;49.25;27.00;;;;;;;0.45;100.00;99983.84;1669429;84;21006;-67
2021/12/16 08:51:58;;;;;;;43.68;24.18;;;;;;;0.50;100.00;99990.23;1668995;86;21185;-67
2021/12/16 08:54:26;;;;;;;49.93;25.75;;;;;;;0.46;100.00;99985.47;1669409;84;21029;-67
2021/12/16 08:56:52;;;;;;;50.70;27.15;;;;;;;0.48;100.00;99987.45;1669642;86;21740;-67
2021/12/16 08:59:20;;;;;;;47.60;25.50;;;;;;;0.51;100.00;99985.76;1666926;86;21492;-67
2021/12/16 09:01:49;;;;;;;46.28;27.10;;;;;;;0.50;100.00;99979.66;1636167;87;21667;-68
2021/12/16 09:04:19;;;;;;;54.23;27.77;;;;;;;0.54;100.00;99985.40;1663677;86;21018;-67
2021/12/16 09:06:56;;;;;;;61.53;29.55;;;;;;;0.55;100.00;99977.30;1666525;85;21063;-67
2021/12/16 09:09:25;;;;;;;52.15;27.40;;;;;;;0.56;100.00;99977.62;1717547;83;21828;-67
2021/12/16 09:12:09;;;;;;;52.80;26.65;;;;;;;0.57;100.00;99973.99;1700975;83;21166;-67
2021/12/16 09:14:45;;;;;;;53.95;25.97;;;;;;;0.53;100.00;99959.48;1727502;83;21418;-67
2021/12/16 09:17:15;;;;;;;53.83;30.20;;;;;;;0.57;100.00;99959.46;1728412;83;21054;-66
2021/12/16 09:19:49;;;;;;;96.28;49.53;;;;;;;0.55;100.00;99953.53;1729154;81;21037;-68
2021/12/16 09:22:17;;;;;;;61.53;28.92;;;;;;;0.60;100.00;99958.28;1726779;83;21133;-70
2021/12/16 09:24:51;;;;;;;82.57;38.90;;;;;;;0.60;100.00;99954.32;1677581;83;21046;-67
2021/12/16 09:27:19;;;;;;;64.55;31.42;;;;;;;0.60;100.00;99949.03;1693244;84;21022;-70
2021/12/16 09:29:47;;;;;;;80.50;38.63;;;;;;;0.57;100.00;99944.94;1677019;83;21623;-70
2021/12/16 09:32:14;;;;;;;71.83;35.67;;;;;;;0.64;100.00;99945.86;1648306;86;21074;-69
2021/12/16 09:34:42;;;;;;;63.98;29.95;;;;;;;0.70;100.00;99942.18;1688929;84;21158;-69
2021/12/16 09:37:09;;;;;;;97.05;46.40;;;;;;;0.70;100.00;99940.86;1671210;85;20963;-69
2021/12/16 09:39:37;;;;;;;62.60;27.30;;;;;;;0.73;100.00;99937.34;1672714;85;21529;-70
2021/12/16 09:42:05;;;;;;;171.32;97.22;;;;;;;0.77;100.00;99927.25;1672497;85;21545;-69
2021/12/16 09:44:33;;;;;;;112.20;50.95;;;;;;;0.81;100.00;99933.31;1668165;84;21537;-69
2021/12/16 09:47:02;;;;;;;114.30;54.50;;;;;;;0.88;100.00;99927.29;1685855;84;21665;-69
2021/12/16 09:49:28;;;;;;;;;;;;;;;0.88;100.00;99929.94;1687292;84;21031;-68
2021/12/16 09:51:56;;;;;;;104.97;47.78;;;;;;;0.89;100.00;99915.23;1678542;85;20219;-68
2021/12/16 09:54:27;;;;;;;153.10;67.90;;;;;;;0.91;100.00;99921.16;1691775;84;21498;-68
2021/12/16 09:56:55;;;;;;;97.92;48.42;;;;;;;0.95;100.00;99913.67;1691887;84;21023;-69
2021/12/16 09:59:25;;;;;;;82.35;40.10;;;;;;;0.97;100.00;99915.64;1688890;84;21222;-70
2021/12/16 10:01:55;;;;;;;162.32;74.85;;;;;;;0.99;100.00;99915.77;1665011;86;20942;-68
2021/12/16 10:04:23;;;;;;;211.82;109.27;;;;;;;1.04;100.00;99913.40;1665158;86;20974;-68
2021/12/16 10:06:53;;;;;;;72.67;37.17;;;;;;;1.05;100.00;99907.13;1671385;84;21428;-68
2021/12/16 10:09:20;;;;;;;65.25;32.05;;;;;;;1.07;100.00;99910.37;1692965;84;20977;-69
2021/12/16 10:11:49;;;;;;;79.32;40.20;;;;;;;1.04;100.00;99902.83;1677353;84;21342;-68
2021/12/16 10:14:31;;;;;;;65.15;32.63;;;;;;;1.14;100.00;99909.16;1665077;86;20981;-68
2021/12/16 10:19:34;;;;;;;70.92;35.25;;;;;;;1.19;100.00;99905.97;1665181;86;21084;-67
2021/12/16 10:22:33;;;;;;;66.28;34.88;;;;;;;1.19;100.00;99897.52;1689443;84;20923;-67
2021/12/16 10:25:22;;;;;;;57.13;27.32;;;;;;;1.18;100.00;99890.61;1691622;84;21175;-69
2021/12/16 10:28:23;;;;;;;69.42;32.70;;;;;;;1.14;100.00;99885.36;1691402;84;21045;-68
2021/12/16 10:31:04;;;;;;;81.78;40.80;;;;;;;1.15;100.00;99892.30;1691711;84;21000;-68
2021/12/16 10:33:42;;;;;;;69.32;31.50;;;;;;;1.16;100.00;99885.19;1692799;84;20980;-68
2021/12/16 10:36:18;;;;;;;67.47;30.48;;;;;;;1.07;100.00;99876.02;1702715;83;21489;-70
2021/12/16 10:38:51;;;;;;;67.12;31.62;;;;;;;1.15;100.00;99870.31;1698963;83;21009;-69
2021/12/16 10:41:30;;;;;;;69.80;29.72;;;;;;;1.16;100.00;99868.00;1684780;85;21106;-69
2021/12/16 10:44:13;;;;;;;73.40;38.38;;;;;;;1.10;100.00;99862.11;1664759;86;20963;-69
2021/12/16 10:46:50;;;;;;;65.15;30.43;;;;;;;1.10;100.00;99858.96;1665049;86;21051;-69
2021/12/16 10:49:20;;;;;;;78.90;34.78;;;;;;;1.11;100.00;99859.30;1665038;86;21074;-70
2021/12/16 10:51:50;;;;;;;92.85;43.13;;;;;;;1.12;100.00;99858.78;1665205;84;21142;-68
2021/12/16 10:54:21;;;;;;;111.75;54.55;;;;;;;1.13;100.00;99854.64;1667719;84;20975;-69
2021/12/16 10:57:12;;;;;;;103.05;48.80;;;;;;;1.16;100.00;99855.59;1685446;84;21655;-69
2021/12/16 10:59:58;;;;;;;91.30;41.83;;;;;;;1.19;100.00;99850.44;1664849;86;21029;-69
2021/12/16 11:02:32;;;;;;;94.35;42.45;;;;;;;1.21;100.00;99852.39;1665085;86;21074;-70
2021/12/16 11:05:21;;;;;;;109.95;47.48;;;;;;;1.23;100.00;99841.14;1664974;86;21372;-69
2021/12/16 11:07:55;;;;;;;112.35;57.15;;;;;;;1.24;100.00;99835.64;1682399;84;21017;-69
2021/12/16 11:10:29;;;;;;;134.20;60.95;;;;;;;1.28;100.00;99829.49;1693178;84;20978;-69
2021/12/16 11:13:03;;;;;;;440.52;325.65;;;;;;;1.31;100.00;99833.08;1686238;84;21039;-69
2021/12/16 11:15:47;;;;;;;173.07;106.37;;;;;;;1.34;100.00;99826.09;1653042;85;22483;-67
2021/12/16 11:18:22;;;;;;;83.30;43.87;;;;;;;1.42;100.00;99825.15;1681312;85;21147;-69
2021/12/16 11:21:02;;;;;;;140.05;109.92;;;;;;;1.42;100.00;99829.12;1681395;85;21548;-69
2021/12/16 11:23:34;;;;;;;147.90;129.97;;;;;;;1.42;100.00;99820.70;1653169;86;20934;-69
2021/12/16 11:26:16;;;;;;;69.15;35.75;;;;;;;1.44;100.00;99812.56;1683724;84;20964;-68
2021/12/16 11:28:51;;;;;;;157.20;84.37;;;;;;;1.45;100.00;99807.60;1692180;84;21099;-70
2021/12/16 11:31:26;;;;;;;169.93;82.85;;;;;;;1.53;100.00;99806.66;1691751;84;21136;-69
2021/12/16 11:33:59;;;;;;;85.32;41.20;;;;;;;1.58;100.00;99796.33;1699664;83;21497;-70
2021/12/16 11:36:37;;;;;;;154.15;70.45;;;;;;;1.59;100.00;99793.47;1683352;83;21503;-69
2021/12/16 11:39:17;;;;;;;65.63;33.33;;;;;;;1.64;100.00;99796.39;1685105;85;20962;-69
2021/12/16 11:41:53;;;;;;;58.02;30.57;;;;;;;1.66;100.00;99785.60;1685158;85;21473;-69
2021/12/16 11:44:26;;;;;;;68.92;35.30;;;;;;;1.70;100.00;99779.74;1684321;85;21994;-69
2021/12/16 11:47:20;;;;;;;66.20;33.10;;;;;;;1.75;100.00;99776.53;1684477;85;21013;-69
2021/12/16 11:49:54;;;;;;;67.53;33.23;;;;;;;1.81;100.00;99780.23;1684638;85;21033;-69
2021/12/16 11:52:33;;;;;;;68.83;33.42;;;;;;;1.85;100.00;99771.72;1684961;85;20938;-70
2021/12/16 11:55:09;;;;;;;53.95;25.50;;;;;;;1.88;100.00;99770.52;1684980;85;21056;-68
2021/12/16 11:57:43;;;;;;;197.55;145.47;;;;;;;1.79;100.00;99769.02;1684957;85;21189;-69
2021/12/16 12:00:25;;;;;;;119.08;87.53;;;;;;;1.83;100.00;99772.92;1684741;85;20950;-68
2021/12/16 12:03:00;;;;;;;296.43;163.47;;;;;;;1.82;100.00;99775.27;1684647;85;21520;-70
2021/12/16 12:05:42;;;;;;;173.35;103.25;;;;;;;1.83;100.00;99776.38;1684529;85;21078;-69
2021/12/16 12:08:24;;;;;;;115.72;53.68;;;;;;;1.84;100.00;99781.20;1706250;83;20922;-69
2021/12/16 12:11:03;;;;;;;391.45;206.70;;;;;;;1.80;100.00;99767.51;1700441;83;20923;-70
2021/12/16 12:13:40;;;;;;;89.58;45.83;;;;;;;1.84;100.00;99767.45;1711801;83;20963;-69
2021/12/16 12:16:20;;;;;;;73.28;39.13;;;;;;;1.85;100.00;99768.27;1713545;83;21612;-69
2021/12/16 12:18:51;;;;;;;65.60;36.38;;;;;;;1.85;100.00;99761.64;1683098;83;21041;-69
2021/12/16 12:21:36;;;;;;;66.77;36.90;;;;;;;1.86;100.00;99757.49;1713295;83;20986;-69
2021/12/16 12:24:14;;;;;;;65.55;34.13;;;;;;;1.88;100.00;99753.31;1713497;83;21111;-68
2021/12/16 12:26:49;;;;;;;86.32;50.03;;;;;;;1.89;100.00;99748.34;1684430;85;20949;-70
2021/12/16 12:29:28;;;;;;;83.03;40.52;;;;;;;1.90;100.00;99748.14;1710819;83;21001;-69
2021/12/16 12:32:07;;;;;;;72.50;36.88;;;;;;;1.91;100.00;99747.14;1705949;83;20997;-70
2021/12/16 12:34:36;;;;;;;91.95;56.70;;;;;;;1.92;100.00;99748.77;1683425;83;21028;-70
2021/12/16 12:37:05;;;;;;;;;;;;;;;1.92;100.00;99743.48;1696348;83;21134;-70
2021/12/16 12:39:44;;;;;;;72.45;39.58;;;;;;;1.99;100.00;99746.17;1728871;82;20439;-69
2021/12/16 12:42:12;;;;;;;57.75;32.08;;;;;;;2.00;100.00;99746.48;1737959;82;20927;-69
2021/12/16 12:44:40;;;;;;;76.20;45.75;;;;;;;1.98;100.00;99744.52;1707025;84;20984;-68
2021/12/16 12:47:12;;;;;;;67.80;38.88;;;;;;;2.02;100.00;99748.94;1706734;84;20971;-69
2021/12/16 12:49:39;;;;;;;83.87;48.17;;;;;;;2.03;100.00;99747.92;1707236;84;21181;-68
2021/12/16 12:52:11;;;;;;;96.08;63.75;;;;;;;2.03;100.00;99759.33;1706524;84;20952;-69
2021/12/16 12:54:42;;;;;;;91.17;73.78;;;;;;;2.04;100.00;99760.98;1706556;83;21059;-68
2021/12/16 12:57:25;;;;;;;75.72;56.55;;;;;;;2.03;100.00;99774.40;1706406;83;21098;-70
2021/12/16 12:59:53;;;;;;;62.73;37.85;;;;;;;2.04;100.00;99771.56;1706547;83;21110;-68
2021/12/16 13:02:25;;;;;;;66.82;39.85;;;;;;;2.05;100.00;99778.48;1694991;83;21828;-68
2021/12/16 13:05:06;;;;;;;73.90;49.93;;;;;;;2.03;100.00;99775.72;1686573;82;21026;-66
2021/12/16 13:07:46;;;;;;;59.42;31.40;;;;;;;2.01;100.00;99771.96;1723823;82;21504;-67
2021/12/16 13:10:24;;;;;;;59.98;32.93;;;;;;;2.00;100.00;99766.34;1720218;82;21001;-67
2021/12/16 13:13:15;;;;;;;117.63;102.53;;;;;;;2.00;100.00;99751.77;1665850;85;21098;-69
2021/12/16 13:27:06;;;;;;;67.37;35.28;;;;;;;1.96;100.00;99741.28;1700453;84;21039;-65
2021/12/16 13:32:20;;;;;;;66.00;33.35;;;;;;;1.92;100.00;99743.48;1731969;82;21067;-64
2021/12/16 13:35:05;;;;;;;63.68;33.78;;;;;;;1.91;100.00;99734.39;1726364;82;20998;-64
2021/12/16 13:37:33;;;;;;;70.03;35.97;;;;;;;1.87;100.00;99731.84;1656883;84;21129;-64
2021/12/16 13:40:24;;;;;;;73.67;41.15;;;;;;;1.89;100.00;99731.95;1708023;83;21017;-65
2021/12/16 13:43:14;;;;;;;86.08;40.43;;;;;;;1.89;100.00;99737.25;1704221;83;21198;-65
2021/12/16 13:45:49;;;;;;;71.97;35.50;;;;;;;1.90;100.00;99738.88;1704140;83;21153;-65
2021/12/16 14:03:01;;;;;;;62.73;34.35;;;;;;;1.89;100.00;99742.55;1654681;86;21501;-68
2021/12/16 14:06:17;;;;;;;62.13;32.40;;;;;;;1.88;100.00;99749.34;1712532;83;20969;-68
2021/12/16 14:08:48;;;;;;;61.15;30.82;;;;;;;1.86;100.00;99745.58;1712108;83;20950;-69